createdAt,value
2023-04-21T00:02:26.080Z,6.85
2023-04-21T00:04:54.125Z,7.15
2023-04-21T00:07:22.737Z,7.28
2023-04-21T00:09:50.563Z,7.18
2023-04-21T00:12:18.370Z,7.30
2023-04-21T00:14:46.392Z,7.00
2023-04-21T00:17:14.192Z,7.15
2023-04-21T00:19:42.431Z,7.38
2023-04-21T00:22:14.843Z,6.50
2023-04-21T00:24:42.660Z,7.22
2023-04-21T00:27:11.515Z,7.30
2023-04-21T00:29:40.622Z,7.10
2023-04-21T00:32:10.425Z,7.70
2023-04-21T00:34:38.513Z,8.13
2023-04-21T00:37:06.401Z,7.55
2023-04-21T00:39:34.224Z,6.50
2023-04-21T00:42:02.529Z,7.65
2023-04-21T00:44:30.468Z,7.95
2023-04-21T00:46:58.546Z,7.20
2023-04-21T00:49:26.361Z,7.55
2023-04-21T00:51:54.119Z,7.07
2023-04-21T00:54:22.031Z,7.20
2023-04-21T00:56:50.027Z,8.02
2023-04-21T00:59:18.124Z,8.07
2023-04-21T01:01:46.125Z,7.47
2023-04-21T01:04:14.006Z,7.70
2023-04-21T01:06:41.921Z,7.80
2023-04-21T01:09:09.695Z,7.57
2023-04-21T01:11:37.489Z,7.85
2023-04-21T01:14:05.463Z,7.65
2023-04-21T01:16:33.718Z,7.32
2023-04-21T01:19:01.603Z,7.20
2023-04-21T01:21:32.074Z,7.30
2023-04-21T01:23:59.847Z,7.95
2023-04-21T01:26:27.605Z,7.20
2023-04-21T01:28:55.519Z,8.13
2023-04-21T01:31:24.274Z,7.63
2023-04-21T01:33:52.100Z,7.78
2023-04-21T01:36:20.255Z,7.75
2023-04-21T01:38:48.051Z,8.15
2023-04-21T01:41:15.993Z,7.57
2023-04-21T01:43:43.783Z,8.05
2023-04-21T01:46:11.765Z,7.95
2023-04-21T01:48:39.541Z,7.65
2023-04-21T01:51:07.523Z,8.20
2023-04-21T01:53:35.356Z,7.90
2023-04-21T01:56:03.165Z,7.70
2023-04-21T01:58:30.948Z,8.15
2023-04-21T02:00:58.819Z,8.15
2023-04-21T02:03:26.916Z,7.90
2023-04-21T02:05:54.854Z,7.60
2023-04-21T02:08:22.697Z,7.93
2023-04-21T02:10:50.578Z,7.95
2023-04-21T02:13:18.463Z,7.32
2023-04-21T02:15:46.369Z,7.50
2023-04-21T02:18:14.974Z,7.85
2023-04-21T02:20:42.857Z,7.60
2023-04-21T02:23:10.637Z,8.00
2023-04-21T02:25:38.429Z,7.63
2023-04-21T02:28:06.254Z,7.18
2023-04-21T02:30:34.268Z,7.78
2023-04-21T02:33:02.425Z,8.02
2023-04-21T02:35:30.382Z,6.85
2023-04-21T02:37:58.172Z,7.60
2023-04-21T02:40:26.340Z,8.13
2023-04-21T02:42:54.122Z,7.63
2023-04-21T02:45:21.981Z,7.90
2023-04-21T02:47:49.893Z,8.13
2023-04-21T02:50:17.801Z,7.57
2023-04-21T02:52:45.547Z,7.80
2023-04-21T02:55:13.532Z,7.68
2023-04-21T02:57:41.417Z,8.05
2023-04-21T03:00:14.058Z,7.60
2023-04-21T03:02:42.055Z,7.82
2023-04-21T03:05:10.108Z,7.60
2023-04-21T03:07:37.923Z,7.30
2023-04-21T03:10:06.342Z,7.63
2023-04-21T03:12:34.150Z,7.60
2023-04-21T03:15:01.930Z,7.45
2023-04-21T03:17:33.332Z,7.63
2023-04-21T03:20:01.368Z,7.50
2023-04-21T03:22:29.268Z,7.30
2023-04-21T03:24:57.107Z,7.40
2023-04-21T03:27:24.965Z,7.85
2023-04-21T03:29:52.741Z,6.75
2023-04-21T03:32:20.664Z,7.07
2023-04-21T03:34:50.210Z,7.35
2023-04-21T03:37:18.098Z,7.72
2023-04-21T03:39:45.921Z,7.70
2023-04-21T03:42:13.735Z,7.18
2023-04-21T03:44:41.539Z,7.50
2023-04-21T03:47:09.363Z,7.05
2023-04-21T03:49:37.224Z,7.22
2023-04-21T03:52:05.244Z,7.30
2023-04-21T03:54:33.051Z,7.45
2023-04-21T03:57:00.890Z,7.15
2023-04-21T03:59:28.764Z,6.78
2023-04-21T04:01:56.580Z,7.80
2023-04-21T04:04:24.606Z,7.45
2023-04-21T04:06:52.519Z,6.90
2023-04-21T04:09:20.641Z,6.70
2023-04-21T04:11:48.573Z,7.30
2023-04-21T04:14:16.451Z,7.10
2023-04-21T04:16:44.321Z,7.00
2023-04-21T04:19:12.654Z,6.82
2023-04-21T04:21:40.526Z,6.95
2023-04-21T04:24:08.838Z,6.75
2023-04-21T04:26:38.469Z,7.80
2023-04-21T04:29:10.519Z,6.90
2023-04-21T04:31:38.470Z,6.93
2023-04-21T04:34:06.824Z,7.20
2023-04-21T04:36:34.786Z,6.70
2023-04-21T04:39:02.564Z,6.75
2023-04-21T04:41:30.657Z,7.50
2023-04-21T04:44:00.976Z,6.97
2023-04-21T04:46:29.020Z,7.07
2023-04-21T04:48:56.882Z,7.07
2023-04-21T04:51:25.186Z,7.28
2023-04-21T04:53:53.035Z,6.70
2023-04-21T04:56:21.050Z,6.57
2023-04-21T04:58:48.870Z,6.25
2023-04-21T05:01:16.677Z,7.00
2023-04-21T05:03:44.756Z,6.75
2023-04-21T05:06:14.055Z,7.28
2023-04-21T05:08:42.557Z,6.97
2023-04-21T05:11:10.433Z,6.80
2023-04-21T05:13:40.018Z,6.70
2023-04-21T05:16:08.090Z,6.70
2023-04-21T05:18:35.955Z,5.80
2023-04-21T05:21:03.681Z,6.75
2023-04-21T05:23:31.522Z,7.10
2023-04-21T05:26:01.147Z,6.72
2023-04-21T05:28:31.934Z,6.50
2023-04-21T05:30:59.828Z,6.80
2023-04-21T05:33:27.981Z,6.60
2023-04-21T05:35:55.906Z,6.43
2023-04-21T05:38:23.676Z,6.63
2023-04-21T05:40:51.452Z,6.40
2023-04-21T05:43:19.271Z,6.57
2023-04-21T05:45:47.179Z,6.43
2023-04-21T05:48:15.068Z,7.05
2023-04-21T05:50:42.917Z,6.35
2023-04-21T05:53:10.794Z,6.40
2023-04-21T05:55:38.626Z,6.03
2023-04-21T05:58:06.528Z,6.28
2023-04-21T06:00:34.337Z,6.25
2023-04-21T06:03:02.273Z,6.75
2023-04-21T06:05:30.731Z,6.07
2023-04-21T06:07:58.653Z,6.38
2023-04-21T06:10:26.666Z,7.18
2023-04-21T06:12:54.565Z,6.25
2023-04-21T06:15:22.409Z,6.47
2023-04-21T06:17:50.306Z,6.65
2023-04-21T06:20:18.225Z,6.18
2023-04-21T06:22:46.112Z,6.57
2023-04-21T06:25:13.990Z,6.15
2023-04-21T06:27:41.772Z,6.03
2023-04-21T06:30:09.598Z,7.78
2023-04-21T06:32:37.390Z,6.93
2023-04-21T06:35:05.220Z,7.35
2023-04-21T06:37:33.044Z,6.82
2023-04-21T06:40:00.906Z,6.80
2023-04-21T06:42:28.879Z,6.90
2023-04-21T06:44:57.296Z,6.75
2023-04-21T06:47:25.175Z,6.55
2023-04-21T06:49:53.016Z,7.03
2023-04-21T06:52:20.764Z,7.60
2023-04-21T06:54:48.582Z,7.07
2023-04-21T06:57:17.430Z,6.90
2023-04-21T06:59:45.303Z,7.00
2023-04-21T07:02:13.171Z,7.35
2023-04-21T07:04:41.184Z,6.40
2023-04-21T07:07:10.488Z,5.75
2023-04-21T07:09:38.286Z,6.47
2023-04-21T07:12:06.111Z,6.30
2023-04-21T07:14:34.000Z,6.63
2023-04-21T07:17:01.889Z,6.40
2023-04-21T07:19:29.766Z,6.15
2023-04-21T07:21:58.328Z,5.88
2023-04-21T07:24:26.162Z,7.10
2023-04-21T07:26:54.366Z,6.22
2023-04-21T07:29:22.216Z,5.35
2023-04-21T07:31:50.057Z,5.95
2023-04-21T07:34:17.855Z,6.38
2023-04-21T07:36:45.899Z,6.13
2023-04-21T07:39:13.734Z,6.50
2023-04-21T07:41:41.543Z,5.93
2023-04-21T07:44:09.374Z,5.72
2023-04-21T07:46:37.271Z,6.28
2023-04-21T07:49:05.302Z,6.28
2023-04-21T07:51:33.188Z,5.60
2023-04-21T07:54:01.054Z,6.25
2023-04-21T07:56:28.978Z,5.90
2023-04-21T07:58:56.952Z,6.80
2023-04-21T08:01:24.924Z,6.15
2023-04-21T08:03:52.859Z,5.72
2023-04-21T08:06:21.383Z,6.32
2023-04-21T08:08:50.246Z,5.90
2023-04-21T08:11:18.099Z,5.65
2023-04-21T08:13:46.299Z,6.00
2023-04-21T08:16:14.400Z,5.90
2023-04-21T08:18:42.327Z,6.05
2023-04-21T08:21:11.629Z,5.78
2023-04-21T08:23:39.467Z,6.15
2023-04-21T08:26:07.241Z,6.35
2023-04-21T08:28:34.974Z,6.00
2023-04-21T08:31:03.094Z,5.85
2023-04-21T08:33:31.158Z,5.43
2023-04-21T08:36:05.359Z,5.63
2023-04-21T08:38:38.269Z,5.50
2023-04-21T08:41:06.061Z,5.80
2023-04-21T08:43:33.851Z,5.70
2023-04-21T08:46:01.746Z,5.82
2023-04-21T08:48:29.618Z,5.57
2023-04-21T08:50:57.510Z,5.90
2023-04-21T08:53:25.354Z,6.30
2023-04-21T08:56:09.526Z,6.70
2023-04-21T08:58:39.010Z,6.40
2023-04-21T09:01:06.849Z,6.65
2023-04-21T09:03:34.838Z,5.90
2023-04-21T09:06:03.271Z,5.90
2023-04-21T09:08:31.947Z,5.85
2023-04-21T09:10:59.954Z,5.30
2023-04-21T09:13:27.717Z,5.63
2023-04-21T09:15:55.609Z,5.40
2023-04-21T09:18:23.388Z,5.43
2023-04-21T09:20:51.684Z,5.40
2023-04-21T09:23:19.450Z,5.45
2023-04-21T09:25:47.230Z,5.28
2023-04-21T09:28:15.034Z,5.25
2023-04-21T09:30:42.919Z,5.15
2023-04-21T09:33:20.092Z,5.72
2023-04-21T09:35:55.567Z,4.75
2023-04-21T09:38:23.328Z,5.05
2023-04-21T09:40:51.214Z,4.88
2023-04-21T09:43:18.997Z,4.70
2023-04-21T09:45:46.826Z,4.97
2023-04-21T09:48:14.738Z,4.90
2023-04-21T09:51:22.074Z,4.75
2023-04-21T09:53:30.361Z,4.88
2023-04-21T09:55:58.278Z,4.50
2023-04-21T09:58:26.113Z,4.43
2023-04-21T10:00:53.966Z,4.97
2023-04-21T10:03:21.975Z,4.13
2023-04-21T10:05:49.916Z,4.45
2023-04-21T10:08:17.803Z,4.53
2023-04-21T10:10:45.598Z,4.38
2023-04-21T10:13:13.346Z,4.30
2023-04-21T10:15:41.190Z,4.38
2023-04-21T10:18:09.046Z,4.53
2023-04-21T10:20:36.852Z,4.00
2023-04-21T10:23:04.801Z,4.20
2023-04-21T10:25:36.090Z,4.05
2023-04-21T10:28:05.619Z,3.83
2023-04-21T10:30:33.433Z,3.92
2023-04-21T10:33:01.308Z,3.97
2023-04-21T10:35:29.120Z,3.95
2023-04-21T10:37:56.907Z,3.72
2023-04-21T10:40:36.458Z,3.47
2023-04-21T10:43:10.818Z,3.67
2023-04-21T10:45:38.833Z,3.88
2023-04-21T10:48:06.682Z,3.65
2023-04-21T10:50:34.921Z,3.88
2023-04-21T10:53:03.607Z,4.30
2023-04-21T10:55:31.754Z,4.15
2023-04-21T10:58:00.318Z,4.07
2023-04-21T11:00:28.280Z,3.60
2023-04-21T11:02:56.315Z,3.78
2023-04-21T11:05:24.262Z,3.67
2023-04-21T11:07:52.071Z,3.95
2023-04-21T11:10:20.043Z,3.42
2023-04-21T11:12:47.864Z,3.17
2023-04-21T11:15:16.272Z,3.60
2023-04-21T11:17:44.385Z,3.67
2023-04-21T11:20:12.213Z,3.45
2023-04-21T11:22:40.041Z,3.60
2023-04-21T11:25:07.858Z,3.42
2023-04-21T11:27:35.634Z,3.55
2023-04-21T11:30:03.617Z,3.83
2023-04-21T11:32:31.493Z,3.67
2023-04-21T11:34:59.321Z,4.18
2023-04-21T11:37:28.252Z,4.43
2023-04-21T11:39:56.164Z,3.83
2023-04-21T11:42:23.949Z,3.95
2023-04-21T11:44:51.752Z,4.22
2023-04-21T11:47:19.521Z,3.47
2023-04-21T11:49:47.690Z,3.42
2023-04-21T11:52:15.490Z,3.45
2023-04-21T11:54:43.244Z,3.50
2023-04-21T11:57:11.052Z,3.45
2023-04-21T11:59:38.885Z,3.35
2023-04-21T12:02:07.834Z,3.58
2023-04-21T12:04:36.251Z,3.60
2023-04-21T12:07:04.144Z,4.15
2023-04-21T12:09:31.952Z,3.45
2023-04-21T12:11:59.957Z,3.28
2023-04-21T12:14:27.851Z,3.33
2023-04-21T12:16:55.718Z,2.85
2023-04-21T12:19:23.504Z,3.15
2023-04-21T12:21:51.294Z,3.17
2023-04-21T12:24:19.349Z,3.72
2023-04-21T12:26:48.599Z,3.40
2023-04-21T12:29:16.396Z,4.05
2023-04-21T12:31:44.257Z,3.42
2023-04-21T12:34:12.122Z,4.57
2023-04-21T12:36:40.037Z,3.55
2023-04-21T12:39:07.927Z,3.65
2023-04-21T12:41:35.857Z,3.40
2023-04-21T12:44:03.634Z,3.38
2023-04-21T12:46:31.543Z,3.70
2023-04-21T12:48:59.476Z,3.20
2023-04-21T12:51:27.320Z,3.13
2023-04-21T12:53:55.110Z,3.25
2023-04-21T12:56:22.914Z,3.75
2023-04-21T12:58:50.703Z,3.40
2023-04-21T13:01:18.718Z,3.45
2023-04-21T13:03:46.767Z,3.58
2023-04-21T13:06:14.641Z,3.05
2023-04-21T13:08:42.437Z,3.10
2023-04-21T13:11:10.695Z,2.88
2023-04-21T13:13:39.080Z,3.22
2023-04-21T13:16:06.855Z,3.25
2023-04-21T13:18:36.053Z,3.30
2023-04-21T13:21:03.840Z,3.78
2023-04-21T13:23:31.944Z,3.47
2023-04-21T13:25:59.848Z,3.47
2023-04-21T13:28:27.711Z,3.28
2023-04-21T13:30:55.585Z,3.08
2023-04-21T13:33:23.380Z,3.35
2023-04-21T13:35:51.182Z,3.38
2023-04-21T13:38:19.110Z,3.20
2023-04-21T13:40:49.006Z,3.53
2023-04-21T13:43:16.882Z,3.67
2023-04-21T13:45:46.169Z,3.13
2023-04-21T13:48:14.037Z,3.50
2023-04-21T13:50:41.926Z,2.97
2023-04-21T13:53:09.740Z,3.33
2023-04-21T13:55:37.618Z,2.88
2023-04-21T13:58:06.893Z,2.90
2023-04-21T14:00:34.702Z,3.47
2023-04-21T14:03:02.926Z,2.80
2023-04-21T14:05:31.011Z,3.25
2023-04-21T14:07:58.962Z,3.08
2023-04-21T14:10:26.848Z,3.10
2023-04-21T14:12:54.693Z,2.80
2023-04-21T14:15:22.560Z,2.75
2023-04-21T14:17:50.394Z,3.00
2023-04-21T14:20:18.233Z,2.75
2023-04-21T14:22:46.087Z,2.42
2023-04-21T14:25:13.953Z,2.95
2023-04-21T14:27:41.736Z,2.80
2023-04-21T14:30:10.600Z,2.47
2023-04-21T14:32:38.630Z,2.50
2023-04-21T14:35:06.780Z,2.60
2023-04-21T14:37:34.562Z,2.50
2023-04-21T14:40:03.897Z,2.65
2023-04-21T14:42:31.760Z,2.60
2023-04-21T14:44:59.560Z,2.53
2023-04-21T14:47:27.583Z,3.25
2023-04-21T14:49:56.079Z,2.90
2023-04-21T14:52:25.865Z,3.22
2023-04-21T14:54:53.798Z,3.22
2023-04-21T14:57:22.185Z,3.58
2023-04-21T14:59:50.135Z,3.50
2023-04-21T15:02:18.081Z,2.83
2023-04-21T15:04:46.006Z,2.83
2023-04-21T15:07:13.904Z,2.70
2023-04-21T15:09:45.680Z,2.20
2023-04-21T15:12:14.701Z,2.85
2023-04-21T15:14:42.569Z,3.00
2023-04-21T15:17:10.480Z,3.00
2023-04-21T15:19:38.397Z,3.10
2023-04-21T15:22:06.284Z,2.88
2023-04-21T15:24:34.127Z,2.80
2023-04-21T15:27:02.527Z,2.70
2023-04-21T15:29:30.408Z,2.72
2023-04-21T15:31:58.439Z,3.00
2023-04-21T15:34:26.287Z,2.90
2023-04-21T15:36:54.728Z,2.85
2023-04-21T15:39:22.549Z,3.00
2023-04-21T15:41:50.680Z,3.22
2023-04-21T15:44:18.775Z,3.95
2023-04-21T15:46:46.615Z,3.05
2023-04-21T15:49:14.459Z,2.67
2023-04-21T15:51:42.283Z,3.25
2023-04-21T15:54:10.237Z,3.35
2023-04-21T15:56:38.079Z,3.47
2023-04-21T15:59:06.645Z,2.88
2023-04-21T16:01:34.580Z,2.70
2023-04-21T16:04:03.623Z,2.75
2023-04-21T16:06:31.786Z,2.83
2023-04-21T16:08:59.718Z,2.72
2023-04-21T16:11:29.285Z,3.30
2023-04-21T16:13:57.129Z,3.05
2023-04-21T16:16:25.260Z,2.85
2023-04-21T16:18:53.229Z,2.80
2023-04-21T16:21:21.059Z,2.55
2023-04-21T16:23:48.940Z,3.03
2023-04-21T16:26:16.893Z,3.25
2023-04-21T16:28:44.759Z,3.45
2023-04-21T16:31:12.538Z,3.30
2023-04-21T16:33:40.451Z,3.15
2023-04-21T16:36:08.271Z,3.35
2023-04-21T16:38:36.110Z,3.42
2023-04-21T16:41:04.028Z,3.60
2023-04-21T16:43:31.844Z,2.65
2023-04-21T16:46:01.563Z,3.90
2023-04-21T16:48:29.506Z,3.03
2023-04-21T16:50:58.020Z,4.10
2023-04-21T16:53:26.692Z,3.35
2023-04-21T16:55:54.444Z,3.22
2023-04-21T16:58:24.347Z,2.70
2023-04-21T17:00:52.449Z,3.35
2023-04-21T17:03:20.587Z,2.83
2023-04-21T17:05:48.746Z,3.30
2023-04-21T17:08:16.520Z,2.53
2023-04-21T17:10:44.265Z,3.95
2023-04-21T17:13:12.098Z,3.63
2023-04-21T17:15:39.938Z,3.60
2023-04-21T17:18:07.745Z,3.13
2023-04-21T17:20:35.625Z,3.20
2023-04-21T17:23:03.420Z,2.95
2023-04-21T17:25:31.310Z,3.63
2023-04-21T17:27:59.220Z,4.40
2023-04-21T17:30:27.027Z,4.50
2023-04-21T17:33:04.257Z,2.85
2023-04-21T17:35:55.774Z,3.78
2023-04-21T17:38:29.820Z,3.60
2023-04-21T17:40:57.653Z,3.92
2023-04-21T17:43:25.540Z,3.40
2023-04-21T17:45:53.502Z,3.35
2023-04-21T17:48:21.461Z,3.95
2023-04-21T17:50:49.408Z,4.22
2023-04-21T17:53:17.427Z,3.50
2023-04-21T17:55:45.323Z,3.22
2023-04-21T17:58:13.359Z,4.30
2023-04-21T18:00:41.410Z,3.95
2023-04-21T18:03:09.422Z,2.75
2023-04-21T18:05:37.601Z,3.60
2023-04-21T18:08:05.474Z,3.55
2023-04-21T18:10:33.725Z,4.03
2023-04-21T18:13:01.536Z,5.05
2023-04-21T18:15:29.436Z,4.32
2023-04-21T18:17:57.530Z,4.10
2023-04-21T18:20:25.435Z,4.20
2023-04-21T18:22:54.330Z,4.22
2023-04-21T18:25:38.215Z,4.03
2023-04-21T18:28:11.018Z,3.85
2023-04-21T18:30:39.035Z,3.60
2023-04-21T18:33:06.946Z,4.05
2023-04-21T18:35:34.965Z,5.20
2023-04-21T18:38:02.765Z,4.50
2023-04-21T18:40:30.916Z,3.85
2023-04-21T18:42:58.773Z,4.97
2023-04-21T18:45:26.603Z,4.35
2023-04-21T18:47:54.657Z,4.38
2023-04-21T18:50:22.557Z,3.80
2023-04-21T18:52:50.414Z,3.63
2023-04-21T18:55:18.270Z,4.15
2023-04-21T18:57:46.034Z,4.90
2023-04-21T19:00:13.915Z,4.65
2023-04-21T19:02:41.964Z,3.80
2023-04-21T19:05:09.975Z,5.00
2023-04-21T19:07:37.909Z,5.97
2023-04-21T19:10:05.973Z,4.95
2023-04-21T19:12:34.261Z,5.10
2023-04-21T19:15:02.703Z,5.22
2023-04-21T19:17:30.652Z,5.45
2023-04-21T19:19:58.799Z,5.50
2023-04-21T19:22:27.785Z,5.35
2023-04-21T19:24:57.164Z,5.57
2023-04-21T19:27:24.998Z,5.32
2023-04-21T19:29:52.972Z,4.97
2023-04-21T19:32:21.089Z,5.00
2023-04-21T19:34:49.259Z,5.10
2023-04-21T19:37:17.100Z,5.03
2023-04-21T19:39:45.008Z,5.22
2023-04-21T19:42:13.027Z,4.88
2023-04-21T19:44:41.034Z,4.93
2023-04-21T19:47:09.119Z,4.75
2023-04-21T19:49:36.951Z,4.35
2023-04-21T19:52:05.060Z,4.55
2023-04-21T19:54:33.041Z,3.38
2023-04-21T19:57:01.584Z,3.63
2023-04-21T19:59:29.716Z,3.78
2023-04-21T20:01:57.641Z,3.75
2023-04-21T20:04:25.870Z,3.53
2023-04-21T20:06:54.194Z,3.63
2023-04-21T20:09:22.060Z,4.10
2023-04-21T20:11:50.242Z,3.72
2023-04-21T20:14:18.958Z,3.97
2023-04-21T20:16:46.870Z,3.20
2023-04-21T20:19:15.302Z,3.42
2023-04-21T20:21:43.898Z,4.18
2023-04-21T20:24:12.392Z,4.07
2023-04-21T20:26:40.371Z,4.05
2023-04-21T20:29:08.301Z,4.20
2023-04-21T20:31:36.484Z,3.80
2023-04-21T20:34:04.369Z,3.67
2023-04-21T20:36:32.289Z,3.88
2023-04-21T20:39:01.236Z,4.30
2023-04-21T20:41:29.487Z,3.45
2023-04-21T20:43:57.653Z,3.85
2023-04-21T20:46:26.229Z,3.60
2023-04-21T20:48:54.120Z,3.70
2023-04-21T20:51:22.216Z,4.25
2023-04-21T20:53:50.112Z,4.13
2023-04-21T20:56:18.144Z,4.07
2023-04-21T20:58:45.948Z,4.05
2023-04-21T21:01:14.237Z,4.15
2023-04-21T21:03:42.414Z,4.22
2023-04-21T21:06:10.691Z,4.25
2023-04-21T21:08:38.528Z,3.97
2023-04-21T21:11:06.464Z,4.20
2023-04-21T21:13:34.432Z,4.13
2023-04-21T21:16:02.330Z,4.30
2023-04-21T21:18:34.572Z,4.50
2023-04-21T21:21:02.345Z,4.07
2023-04-21T21:23:30.182Z,4.25
2023-04-21T21:25:58.675Z,4.40
2023-04-21T21:28:26.545Z,4.00
2023-04-21T21:30:54.467Z,4.50
2023-04-21T21:33:22.401Z,4.68
2023-04-21T21:35:50.227Z,4.45
2023-04-21T21:38:18.359Z,4.45
2023-04-21T21:40:46.146Z,4.00
2023-04-21T21:43:14.001Z,4.22
2023-04-21T21:45:41.954Z,4.03
2023-04-21T21:48:09.877Z,4.70
2023-04-21T21:50:37.833Z,4.90
2023-04-21T21:53:05.794Z,3.90
2023-04-21T21:55:33.744Z,4.78
2023-04-21T21:58:04.051Z,4.30
2023-04-21T22:00:32.135Z,4.50
2023-04-21T22:03:00.070Z,4.72
2023-04-21T22:05:28.225Z,5.05
2023-04-21T22:07:57.042Z,4.50
2023-04-21T22:10:25.043Z,5.22
2023-04-21T22:12:52.856Z,4.80
2023-04-21T22:15:20.680Z,5.50
2023-04-21T22:17:48.648Z,4.90
2023-04-21T22:20:18.360Z,5.10
2023-04-21T22:22:46.114Z,5.05
2023-04-21T22:25:14.111Z,4.80
2023-04-21T22:27:42.235Z,5.00
2023-04-21T22:30:10.251Z,4.50
2023-04-21T22:32:38.149Z,5.20
2023-04-21T22:35:06.199Z,4.88
2023-04-21T22:37:33.971Z,4.60
2023-04-21T22:40:01.995Z,5.32
2023-04-21T22:42:29.954Z,4.70
2023-04-21T22:44:57.802Z,4.75
2023-04-21T22:47:26.173Z,4.78
2023-04-21T22:49:55.818Z,5.22
2023-04-21T22:52:26.573Z,4.80
2023-04-21T22:54:54.376Z,4.78
2023-04-21T22:57:22.244Z,4.85
2023-04-21T22:59:50.379Z,4.70
2023-04-21T23:02:18.307Z,4.65
2023-04-21T23:04:46.227Z,4.68
2023-04-21T23:07:14.364Z,4.93
2023-04-21T23:09:42.161Z,4.25
2023-04-21T23:12:10.054Z,5.40
2023-04-21T23:14:37.882Z,4.57
2023-04-21T23:17:06.016Z,5.20
2023-04-21T23:19:33.839Z,5.00
2023-04-21T23:22:01.707Z,4.85
2023-04-21T23:24:29.649Z,4.40
2023-04-21T23:26:57.833Z,5.03
2023-04-21T23:29:25.881Z,5.38
2023-04-21T23:31:53.738Z,4.75
2023-04-21T23:34:21.773Z,4.95
2023-04-21T23:36:49.652Z,4.60
2023-04-21T23:39:18.159Z,5.40
2023-04-21T23:41:46.009Z,4.60
2023-04-21T23:44:13.820Z,4.80
2023-04-21T23:46:41.769Z,4.97
2023-04-21T23:49:09.715Z,4.95
2023-04-21T23:51:37.596Z,5.28
2023-04-21T23:54:05.447Z,5.20
2023-04-21T23:56:33.445Z,5.45
2023-04-21T23:59:01.367Z,5.43
